Terminal Aerodrome Forecast
Issued by NWS

Home | Current Version | Previous Version | Text Only | Print | Product List | Glossary On
Versions: 1 2 3 4 5 6 7 8 9 10 11 12 13 14 15 16 17 18 19 20 21
000
FTUS43 KILX 221103 AAB
TAFDEC
TAF AMD
KDEC 221103Z 2211/2306 17012G20KT 3SM -SHRA BR OVC015
     FM221300 17014G28KT 3SM -SHRA BR OVC008
     FM221500 17015G28KT P6SM VCSH OVC003
     FM221800 18014G27KT P6SM BKN020
     FM222100 18014G28KT P6SM VCTS BKN035CB=

USA.gov is the U.S. government's official web portal to all federal, state and local government web resources and services.